< Typhoon 196405 1964 Season Typhoon 196407 >
Typhoon 196406 (CORA)
General InformationTrack Information on Google Maps || Disaster Info.ResourceGoogle EarthGE AnimationAtom FeedGeoJSON
Detalied Best Track (Time Zone = UTC)
Year Month Day Hour Lat. Long. Pressure (hPa) Wind (kt) Class Image Chart
1964 7 5 00 7.0 150.0 1006 0 2 -- Chart
1964 7 5 06 7.7 148.4 1006 0 2 -- Chart
1964 7 5 12 8.5 146.8 1004 0 2 -- Chart
1964 7 5 18 9.2 145.1 1004 0 2 -- Chart
1964 7 6 00 9.8 143.6 1002 0 2 -- Chart
1964 7 6 06 10.5 141.8 1000 0 9 -- Chart
1964 7 6 12 10.8 140.4 998 0 9 -- Chart
1964 7 6 18 11.1 139.0 996 0 9 -- Chart
1964 7 7 00 11.5 137.8 980 0 9 -- Chart
1964 7 7 06 12.0 136.3 970 0 9 -- Chart
1964 7 7 12 12.2 135.1 970 0 9 -- Chart
1964 7 7 18 12.5 134.0 970 0 9 -- Chart
1964 7 8 00 12.6 132.7 970 0 9 -- Chart
1964 7 8 06 12.5 131.3 970 0 9 -- Chart
1964 7 8 12 12.5 130.3 980 0 9 -- Chart
1964 7 8 18 12.5 129.4 990 0 9 -- Chart
1964 7 9 00 12.4 128.7 1000 0 9 -- Chart
1964 7 9 06 12.3 127.9 1000 0 9 -- Chart
1964 7 9 12 12.6 127.3 1000 0 9 -- Chart
1964 7 9 18 12.9 126.1 1000 0 9 -- Chart
1964 7 10 00 13.3 125.0 1002 0 9 -- Chart
1964 7 10 06 14.0 124.0 1004 0 2 -- Chart
1964 7 10 12 14.5 123.0 1004 0 2 -- Chart
1964 7 10 18 15.0 122.0 1006 0 2 -- Chart
1964 7 11 00 16.0 119.0 1006 0 2 -- Chart
1964 7 11 06 15.0 118.0 1006 0 2 -- Chart
1964 7 11 12 14.0 117.0 1006 0 2 -- Chart
Japan Meteorological Agency Best Track Data | Correction Date : 1989-06-01
< Typhoon 196405 1964 Season Typhoon 196407 >

Help